Time;durP1;ratioP1;P1;durP2;ratioP2;P2;SDS_P1;SDS_P2;PMS_P1;PMS_P2;Temp;Humidity;BMP_temperature;BMP_pressure;BME280_temperature;BME280_humidity;BME280_pressure;Samples;Min_cycle;Max_cycle;Signal;HPM_P1;HPM_P2
2022/10/06 00:02:23;;;;;;;0.47;0.47;;;14.00;71.50;13.20;96801.00;;;;5098659;28;20222;-52
2022/10/06 00:04:51;;;;;;;0.83;0.83;;;13.90;71.60;13.20;96805.00;;;;5116464;28;20270;-52
2022/10/06 00:07:20;;;;;;;0.60;0.60;;;13.90;71.50;13.10;96807.00;;;;5116480;28;20281;-51
2022/10/06 00:09:46;;;;;;;0.73;0.73;;;13.80;71.80;13.00;96810.00;;;;5116400;28;20220;-51
2022/10/06 00:12:13;;;;;;;2.27;1.47;;;13.70;72.70;13.00;96822.00;;;;5116426;28;20194;-51
2022/10/06 00:14:39;;;;;;;0.50;0.50;;;13.80;72.70;13.20;96827.00;;;;5116280;28;20214;-51
2022/10/06 00:17:05;;;;;;;0.63;0.63;;;13.70;72.40;13.00;96822.00;;;;5116381;28;20657;-51
2022/10/06 00:19:35;;;;;;;0.50;0.50;;;13.70;72.30;13.00;96822.00;;;;5115118;28;20233;-51
2022/10/06 00:22:01;;;;;;;0.60;0.60;;;13.70;72.60;13.10;96822.00;;;;5116492;28;20238;-52
2022/10/06 00:24:31;;;;;;;1.23;1.10;;;13.80;72.50;13.20;96823.00;;;;5116247;28;20266;-51
2022/10/06 00:26:57;;;;;;;0.83;0.83;;;13.80;72.00;13.10;96822.00;;;;5116211;28;20214;-51
2022/10/06 00:29:24;;;;;;;0.70;0.70;;;13.80;71.70;13.10;96825.00;;;;5115161;28;20209;-51
2022/10/06 00:31:51;;;;;;;0.47;0.47;;;13.80;71.40;13.00;96826.00;;;;5115183;28;20237;-52
2022/10/06 00:34:17;;;;;;;0.80;0.80;;;13.70;71.70;12.90;96826.00;;;;5115877;28;20549;-52
2022/10/06 00:36:44;;;;;;;0.63;0.63;;;13.60;72.30;12.80;96834.00;;;;5116061;28;20691;-51
2022/10/06 00:39:11;;;;;;;0.80;0.80;;;13.50;74.20;12.80;96831.00;;;;5115886;28;20301;-51
2022/10/06 00:41:38;;;;;;;0.87;0.80;;;13.50;73.70;12.80;96838.00;;;;5115967;28;20220;-52
2022/10/06 00:44:05;;;;;;;0.50;0.50;;;13.40;73.40;12.80;96836.00;;;;5115908;28;20270;-51
2022/10/06 00:46:39;;;;;;;0.50;0.50;;;13.40;74.30;12.70;96841.00;;;;5115924;28;20213;-52
2022/10/06 00:49:15;;;;;;;1.17;1.17;;;13.40;74.60;12.70;96842.00;;;;5115902;28;20216;-51
2022/10/06 00:51:48;;;;;;;0.80;0.80;;;13.40;75.10;12.80;96845.00;;;;5115929;28;20478;-52
2022/10/06 00:54:16;;;;;;;0.87;0.87;;;13.50;74.50;12.90;96848.00;;;;5115769;28;20232;-51
2022/10/06 00:56:43;;;;;;;0.60;0.60;;;13.50;74.60;12.90;96847.00;;;;5115930;28;20617;-51
2022/10/06 00:59:12;;;;;;;0.67;0.67;;;13.50;74.60;13.00;96857.00;;;;5115751;28;20198;-52
2022/10/06 01:01:48;;;;;;;0.60;0.60;;;13.60;73.70;12.90;96855.00;;;;5115673;28;20226;-51
2022/10/06 01:04:17;;;;;;;0.60;0.60;;;13.60;73.80;13.00;96858.00;;;;5115768;28;20292;-51
2022/10/06 01:06:49;;;;;;;0.60;0.60;;;13.60;73.40;13.00;96858.00;;;;5115609;28;20706;-51
2022/10/06 01:09:17;;;;;;;0.60;0.60;;;13.60;73.40;13.00;96858.00;;;;5115598;28;20201;-51
2022/10/06 01:11:47;;;;;;;0.73;0.73;;;13.70;72.80;13.10;96859.00;;;;5115371;28;20293;-52
2022/10/06 01:14:15;;;;;;;0.60;0.60;;;13.70;72.70;13.00;96855.00;;;;5097456;28;20328;-55
2022/10/06 01:16:46;;;;;;;0.60;0.60;;;13.60;72.50;12.90;96855.00;;;;5115471;28;20254;-50
2022/10/06 01:19:25;;;;;;;1.77;1.67;;;13.60;73.10;12.90;96859.00;;;;5115725;28;20208;-51
2022/10/06 01:21:56;;;;;;;0.87;0.87;;;13.60;72.70;12.90;96853.00;;;;5115395;28;20225;-51
2022/10/06 01:24:23;;;;;;;0.70;0.70;;;13.50;73.40;12.80;96865.00;;;;5115262;28;20576;-55
2022/10/06 01:26:51;;;;;;;0.40;0.40;;;13.50;73.60;12.90;96863.00;;;;5115503;28;20216;-54
2022/10/06 01:29:19;;;;;;;0.87;0.87;;;13.50;74.60;12.80;96866.00;;;;5097583;28;20294;-57
2022/10/06 01:31:48;;;;;;;0.67;0.67;;;13.40;73.70;12.80;96860.00;;;;5114893;28;20549;-52
2022/10/06 01:34:14;;;;;;;0.40;0.40;;;13.50;73.90;12.70;96857.00;;;;5114799;28;20695;-52
2022/10/06 01:36:40;;;;;;;1.00;1.00;;;13.40;73.90;12.70;96870.00;;;;5115240;28;20321;-52
2022/10/06 01:39:09;;;;;;;0.50;0.50;;;13.40;74.00;12.50;96870.00;;;;5114961;28;20287;-49
2022/10/06 01:41:36;;;;;;;0.60;0.60;;;13.20;73.70;12.30;96868.00;;;;5097091;28;20194;-52
2022/10/06 01:44:03;;;;;;;0.60;0.60;;;13.10;74.50;12.30;96864.00;;;;5114893;28;20186;-50
2022/10/06 01:46:30;;;;;;;1.17;1.17;;;13.00;74.60;12.20;96855.00;;;;5096746;28;20337;-52
2022/10/06 01:48:56;;;;;;;0.80;0.80;;;12.90;75.20;12.00;96874.00;;;;5114714;28;20288;-50
2022/10/06 01:51:23;;;;;;;0.77;0.77;;;12.70;74.90;11.80;96867.00;;;;5114782;28;20670;-49
2022/10/06 01:53:49;;;;;;;0.70;0.70;;;12.60;76.10;11.70;96872.00;;;;5114873;28;20222;-50
2022/10/06 01:56:16;;;;;;;0.60;0.60;;;12.50;76.60;11.60;96880.00;;;;5114627;28;20538;-49
2022/10/06 01:58:46;;;;;;;0.50;0.50;;;12.40;77.80;11.60;96873.00;;;;5114863;28;20629;-52
2022/10/06 02:01:15;;;;;;;0.50;0.50;;;12.30;78.60;11.50;96879.00;;;;5114617;28;20220;-50
2022/10/06 02:03:42;;;;;;;0.57;0.57;;;;;11.50;96878.00;;;;5114669;28;20228;-50
2022/10/06 02:06:09;;;;;;;0.70;0.70;;;12.20;80.20;11.40;96883.00;;;;5114557;28;20197;-50
2022/10/06 02:08:36;;;;;;;0.87;0.87;;;12.20;82.20;11.30;96888.00;;;;5114531;28;20262;-53
2022/10/06 02:11:07;;;;;;;0.60;0.60;;;12.10;82.60;11.50;96897.00;;;;5114503;28;20266;-51
2022/10/06 02:13:35;;;;;;;2.60;1.00;;;12.20;83.10;11.50;96899.00;;;;5114373;28;20591;-50
2022/10/06 02:16:06;;;;;;;0.73;0.73;;;12.20;83.20;11.40;96903.00;;;;5114470;28;20293;-50
2022/10/06 02:18:34;;;;;;;0.80;0.80;;;12.20;82.80;11.40;96895.00;;;;5114339;28;20251;-50
2022/10/06 02:21:02;;;;;;;0.50;0.50;;;12.10;82.80;11.30;96904.00;;;;5114193;28;20743;-51
2022/10/06 02:23:29;;;;;;;0.83;0.83;;;12.00;82.40;11.10;96901.00;;;;5114381;28;20339;-51
2022/10/06 02:25:59;;;;;;;0.67;0.67;;;11.90;83.60;11.10;96905.00;;;;5114107;28;20511;-50
2022/10/06 02:28:29;;;;;;;0.93;0.87;;;11.90;84.10;11.00;96911.00;;;;5096129;28;20206;-50
2022/10/06 02:31:01;;;;;;;1.90;1.10;;;11.80;83.10;10.90;96916.00;;;;5096235;28;20225;-50
2022/10/06 02:33:28;;;;;;;1.13;1.13;;;11.60;83.50;11.00;96912.00;;;;5114166;28;20202;-50
2022/10/06 02:35:55;;;;;;;1.10;1.10;;;11.70;84.30;11.10;96913.00;;;;5113927;28;20556;-50
2022/10/06 02:38:23;;;;;;;0.50;0.50;;;11.70;84.80;11.10;96912.00;;;;5113992;28;20254;-51
2022/10/06 02:40:49;;;;;;;1.17;1.17;;;11.80;84.90;11.10;96906.00;;;;5113988;28;20198;-50
2022/10/06 02:43:16;;;;;;;1.70;1.27;;;11.80;85.00;11.20;96914.00;;;;5095227;28;20198;-51
2022/10/06 02:45:42;;;;;;;0.73;0.73;;;11.90;85.40;11.20;96911.00;;;;5113931;28;20194;-50
2022/10/06 02:48:11;;;;;;;0.80;0.80;;;11.90;84.50;11.10;96925.00;;;;5113885;28;20213;-50
2022/10/06 02:50:38;;;;;;;1.23;1.20;;;11.80;84.20;11.00;96924.00;;;;5113936;28;20637;-51
2022/10/06 02:53:07;;;;;;;1.53;1.43;;;11.70;83.90;10.80;96919.00;;;;5113771;28;20309;-52
2022/10/06 02:55:34;;;;;;;1.20;1.20;;;11.60;84.20;10.90;96921.00;;;;5113686;28;20220;-50
2022/10/06 02:58:02;;;;;;;0.77;0.77;;;11.60;84.70;10.90;96922.00;;;;5113637;28;20209;-51
2022/10/06 03:00:29;;;;;;;0.93;0.93;;;11.60;84.50;10.80;96946.00;;;;5113828;28;20285;-50
2022/10/06 03:02:58;;;;;;;0.70;0.70;;;11.50;84.20;10.90;96955.00;;;;5113950;28;20225;-50
2022/10/06 03:05:27;;;;;;;0.70;0.70;;;11.50;84.80;11.00;96961.00;;;;5095867;28;20287;-50
2022/10/06 03:07:54;;;;;;;0.43;0.43;;;11.60;85.30;11.00;96964.00;;;;5095873;28;20240;-52
2022/10/06 03:10:20;;;;;;;0.70;0.70;;;11.60;84.40;10.90;96966.00;;;;5113876;28;20619;-49
2022/10/06 03:12:47;;;;;;;0.70;0.70;;;11.60;84.10;10.90;96953.00;;;;5118129;28;20198;-50
2022/10/06 03:15:13;;;;;;;0.83;0.83;;;11.60;84.10;10.90;96953.00;;;;5096047;28;20240;-51
2022/10/06 03:17:40;;;;;;;0.60;0.60;;;11.50;84.90;10.90;96961.00;;;;5113792;28;20193;-51
2022/10/06 03:20:07;;;;;;;0.60;0.60;;;11.60;85.80;11.00;96962.00;;;;5113582;28;20197;-50
2022/10/06 03:22:34;;;;;;;0.60;0.60;;;11.60;86.40;11.00;96968.00;;;;5113737;28;20281;-51
2022/10/06 03:25:01;;;;;;;0.50;0.50;;;11.70;86.50;10.90;96975.00;;;;5113598;28;20280;-51
2022/10/06 03:27:27;;;;;;;0.70;0.70;;;11.60;85.20;10.70;96983.00;;;;5113546;28;20233;-51
2022/10/06 03:29:54;;;;;;;0.77;0.77;;;11.50;85.10;10.70;96987.00;;;;5113508;28;20198;-51
2022/10/06 03:32:22;;;;;;;0.80;0.80;;;11.50;85.40;10.70;96990.00;;;;5113318;28;20578;-50
2022/10/06 03:34:48;;;;;;;1.90;1.70;;;11.40;85.40;10.60;96998.00;;;;5095429;28;20264;-51
2022/10/06 03:37:17;;;;;;;0.60;0.60;;;11.30;85.30;10.60;96985.00;;;;5113310;28;20222;-51
2022/10/06 03:39:44;;;;;;;3.23;1.27;;;11.30;85.80;10.60;96996.00;;;;5113408;28;20213;-51
2022/10/06 03:42:11;;;;;;;0.93;0.93;;;11.30;86.90;10.70;96990.00;;;;5095780;28;20216;-51
2022/10/06 03:44:37;;;;;;;1.70;1.60;;;11.30;87.90;10.70;97008.00;;;;5095307;28;20231;-51
2022/10/06 03:47:04;;;;;;;0.93;0.93;;;11.40;87.30;10.60;97006.00;;;;5095262;28;20209;-51
2022/10/06 03:49:30;;;;;;;0.63;0.63;;;11.30;86.20;10.40;97021.00;;;;5113297;28;20222;-51
2022/10/06 03:51:57;;;;;;;0.60;0.60;;;11.20;86.20;10.30;97017.00;;;;5113220;28;20204;-51
2022/10/06 03:54:23;;;;;;;0.97;0.93;;;11.10;87.20;10.30;97021.00;;;;5114890;28;20684;-51
2022/10/06 03:56:49;;;;;;;0.50;0.50;;;11.00;87.50;10.30;97028.00;;;;5116747;28;20701;-50
2022/10/06 03:59:19;;;;;;;0.50;0.50;;;11.00;87.10;10.30;97030.00;;;;5116564;28;20220;-52
2022/10/06 04:01:47;;;;;;;0.67;0.67;;;11.00;87.80;10.30;97030.00;;;;5116515;28;20273;-51
2022/10/06 04:04:14;;;;;;;0.80;0.80;;;11.00;87.80;10.40;97026.00;;;;5116450;28;20273;-50
2022/10/06 04:06:43;;;;;;;1.00;1.00;;;11.10;87.50;10.40;97023.00;;;;5116201;28;20645;-50
2022/10/06 04:09:12;;;;;;;0.70;0.70;;;11.10;87.30;10.30;97021.00;;;;5116414;28;20201;-50
2022/10/06 04:11:40;;;;;;;1.07;1.07;;;11.00;87.90;10.20;97027.00;;;;5116330;28;20841;-50
2022/10/06 04:14:09;;;;;;;1.47;1.37;;;11.00;88.20;10.20;97030.00;;;;5116255;28;20693;-51
2022/10/06 04:16:39;;;;;;;0.70;0.70;;;11.00;88.60;10.30;97022.00;;;;5116224;28;20664;-50
2022/10/06 04:19:09;;;;;;;0.60;0.60;;;11.00;89.90;10.30;97031.00;;;;5116245;28;20208;-50
2022/10/06 04:21:39;;;;;;;0.83;0.83;;;11.10;91.20;10.30;97038.00;;;;5116214;28;20277;-50
2022/10/06 04:24:07;;;;;;;0.67;0.67;;;11.10;90.80;10.30;97044.00;;;;5116181;28;20269;-51
2022/10/06 04:26:37;;;;;;;0.60;0.60;;;11.00;91.80;9.90;97032.00;;;;5116172;28;20254;-50
2022/10/06 04:29:05;;;;;;;1.10;1.00;;;10.80;88.80;10.20;97039.00;;;;5116082;28;20687;-50
2022/10/06 04:31:35;;;;;;;1.27;1.20;;;10.90;90.50;10.10;97049.00;;;;5116026;28;20190;-53
2022/10/06 04:34:05;;;;;;;1.63;1.53;;;10.80;89.70;10.20;97051.00;;;;5116041;28;20525;-51
2022/10/06 04:36:34;;;;;;;0.67;0.67;;;10.90;91.30;10.40;97055.00;;;;5115430;28;20206;-51
2022/10/06 04:39:05;;;;;;;1.10;1.10;;;11.10;92.30;10.60;97057.00;;;;5116448;28;20237;-54
2022/10/06 04:41:35;;;;;;;0.80;0.80;;;11.30;92.30;10.70;97056.00;;;;5117596;28;20237;-56
2022/10/06 04:44:03;;;;;;;1.10;1.10;;;11.40;91.90;10.60;97053.00;;;;5116126;28;20301;-53
2022/10/06 04:46:33;;;;;;;1.67;1.57;;;11.40;88.70;10.60;97059.00;;;;5116141;28;20722;-55
2022/10/06 04:49:00;;;;;;;0.97;0.97;;;11.30;89.40;10.60;97067.00;;;;5116061;28;20234;-54
2022/10/06 04:51:27;;;;;;;7.03;1.60;;;11.40;90.40;10.70;97071.00;;;;5116017;28;20314;-52
2022/10/06 04:53:54;;;;;;;1.53;1.43;;;11.40;90.30;10.80;97067.00;;;;5121785;28;20293;-51
2022/10/06 04:56:23;;;;;;;3.60;1.37;;;11.50;90.10;10.80;97059.00;;;;5118040;28;20324;-54
2022/10/06 04:58:54;;;;;;;0.73;0.73;;;11.50;89.40;10.80;97053.00;;;;5097831;28;20651;-51
2022/10/06 05:01:23;;;;;;;0.97;0.97;;;11.50;89.60;10.90;97068.00;;;;5115871;28;20228;-52
2022/10/06 05:03:51;;;;;;;1.27;1.27;;;11.50;89.60;10.90;97080.00;;;;5123080;28;20720;-50
2022/10/06 05:06:20;;;;;;;1.17;1.17;;;11.60;89.60;10.90;97072.00;;;;5120641;28;20571;-52
2022/10/06 05:08:49;;;;;;;0.70;0.70;;;11.60;89.30;10.80;97081.00;;;;5115578;28;20204;-52
2022/10/06 05:11:16;;;;;;;1.00;1.00;;;11.50;89.70;10.80;97083.00;;;;5115652;28;20190;-51
2022/10/06 05:13:43;;;;;;;1.10;1.10;;;11.50;90.00;10.90;97085.00;;;;5115624;28;20236;-52
2022/10/06 05:16:14;;;;;;;0.70;0.70;;;11.60;90.10;10.90;97091.00;;;;5115597;28;20206;-50
2022/10/06 05:18:41;;;;;;;0.70;0.70;;;11.60;90.30;11.00;97099.00;;;;5115356;28;20221;-51
2022/10/06 05:21:12;;;;;;;1.83;1.50;;;11.60;90.60;11.10;97106.00;;;;5115358;28;20243;-52
2022/10/06 05:23:40;;;;;;;1.23;1.23;;;11.70;91.10;11.20;97108.00;;;;5115248;28;20286;-51
2022/10/06 05:26:11;;;;;;;1.30;1.23;;;11.80;92.30;11.30;97104.00;;;;5115296;28;20198;-54
2022/10/06 05:28:38;;;;;;;1.07;1.07;;;11.90;91.80;11.30;97107.00;;;;5097334;28;20335;-51
2022/10/06 05:31:09;;;;;;;0.70;0.70;;;12.00;91.80;11.30;97092.00;;;;5115221;28;20671;-51
2022/10/06 05:33:36;;;;;;;0.70;0.70;;;12.00;91.40;11.30;97114.00;;;;5115262;28;20290;-52
2022/10/06 05:36:05;;;;;;;1.20;1.10;;;12.00;91.50;11.40;97127.00;;;;5115077;28;20229;-51
2022/10/06 05:38:33;;;;;;;0.67;0.67;;;12.00;91.60;11.60;97120.00;;;;5115105;28;20194;-51
2022/10/06 05:41:05;;;;;;;1.03;1.03;;;12.20;92.60;11.70;97124.00;;;;5115102;28;20225;-51
2022/10/06 05:43:35;;;;;;;0.90;0.90;;;12.40;93.00;11.80;97133.00;;;;5115228;28;20534;-51
2022/10/06 05:46:04;;;;;;;1.17;1.10;;;12.40;93.00;11.80;97129.00;;;;5115140;28;20221;-51
2022/10/06 05:48:31;;;;;;;0.53;0.53;;;12.50;93.10;11.90;97127.00;;;;5115176;28;20285;-51
2022/10/06 05:51:04;;;;;;;4.37;1.63;;;12.60;94.00;12.00;97122.00;;;;5114974;28;20196;-51
2022/10/06 05:53:32;;;;;;;1.30;1.27;;;;;12.20;97138.00;;;;5114958;28;20266;-51
2022/10/06 05:56:06;;;;;;;0.63;0.63;;;12.80;95.40;12.20;97145.00;;;;5114857;28;20269;-52
2022/10/06 05:58:36;;;;;;;0.73;0.73;;;12.90;95.80;12.40;97151.00;;;;5097089;28;20251;-51
2022/10/06 06:01:09;;;;;;;0.60;0.60;;;13.10;96.80;12.50;97152.00;;;;5114941;28;20297;-52
2022/10/06 06:03:40;;;;;;;0.53;0.53;;;13.20;96.90;13.00;97152.00;;;;5114810;28;20312;-51
2022/10/06 06:06:16;;;;;;;0.87;0.87;;;13.50;97.70;12.90;97162.00;;;;5114684;28;20225;-54
2022/10/06 06:08:43;;;;;;;1.10;1.10;;;13.60;96.20;13.10;97157.00;;;;5096614;28;20221;-51
2022/10/06 06:11:10;;;;;;;0.50;0.50;;;13.60;96.40;13.10;97163.00;;;;5114729;28;20301;-51
2022/10/06 06:13:39;;;;;;;1.87;1.47;;;13.70;95.50;13.00;97169.00;;;;5114444;28;20198;-51
2022/10/06 06:16:14;;;;;;;0.90;0.90;;;13.70;95.80;13.10;97167.00;;;;5114465;28;20202;-51
2022/10/06 06:18:41;;;;;;;0.80;0.80;;;13.70;95.80;13.10;97174.00;;;;5113328;28;20206;-51
2022/10/06 06:21:09;;;;;;;0.87;0.87;;;13.70;96.00;13.20;97163.00;;;;5114320;28;20218;-52
2022/10/06 06:23:41;;;;;;;0.70;0.70;;;13.70;95.80;13.30;97162.00;;;;5114468;28;20216;-52
2022/10/06 06:26:12;;;;;;;2.53;1.53;;;13.90;94.70;13.40;97173.00;;;;5096315;28;20234;-52
2022/10/06 06:28:40;;;;;;;2.03;1.37;;;13.90;95.50;13.40;97180.00;;;;5096356;28;20210;-51
2022/10/06 06:31:09;;;;;;;0.90;0.90;;;13.90;94.50;13.40;97188.00;;;;5096362;28;20672;-52
2022/10/06 06:33:38;;;;;;;0.93;0.93;;;;;13.30;97191.00;;;;5096346;28;20672;-52
2022/10/06 06:36:12;;;;;;;0.60;0.60;;;14.00;93.30;13.40;97195.00;;;;5114269;28;20186;-52
2022/10/06 06:38:39;;;;;;;1.03;1.03;;;14.00;93.90;13.40;97192.00;;;;5114289;28;20217;-52
2022/10/06 06:41:13;;;;;;;1.40;1.30;;;14.00;93.40;13.60;97197.00;;;;5114177;28;20247;-51
2022/10/06 06:43:41;;;;;;;0.60;0.60;;;14.10;92.80;13.50;97201.00;;;;5113917;28;20302;-51
2022/10/06 06:46:07;;;;;;;1.97;1.40;;;14.10;91.60;13.50;97201.00;;;;5113974;28;20194;-52
2022/10/06 06:48:36;;;;;;;0.90;0.90;;;14.10;91.90;13.60;97204.00;;;;5114066;28;20277;-53
2022/10/06 06:51:04;;;;;;;0.70;0.70;;;14.20;92.00;13.60;97218.00;;;;5114022;28;20198;-52
2022/10/06 06:53:31;;;;;;;0.80;0.80;;;14.20;91.30;13.70;97228.00;;;;5114063;28;20186;-51
2022/10/06 06:55:57;;;;;;;0.90;0.90;;;14.30;91.30;13.80;97222.00;;;;5114008;28;20597;-51
2022/10/06 06:58:24;;;;;;;0.40;0.40;;;14.30;91.30;13.80;97221.00;;;;5113859;28;20258;-51
2022/10/06 07:00:54;;;;;;;0.93;0.93;;;14.40;91.20;13.90;97226.00;;;;5113741;28;20674;-51
2022/10/06 07:03:21;;;;;;;0.80;0.80;;;14.50;91.20;14.00;97239.00;;;;5095839;28;20224;-52
2022/10/06 07:05:49;;;;;;;0.47;0.47;;;14.50;90.90;14.10;97243.00;;;;5113732;28;20552;-51
2022/10/06 07:08:19;;;;;;;0.87;0.87;;;14.60;90.00;14.10;97255.00;;;;5113875;28;20212;-53
2022/10/06 07:10:47;;;;;;;0.60;0.60;;;14.60;88.60;14.00;97254.00;;;;5095737;28;20243;-51
2022/10/06 07:13:15;;;;;;;0.60;0.60;;;14.60;88.00;14.10;97255.00;;;;5113695;28;20224;-51
2022/10/06 07:26:47;;;;;;;0.80;0.80;;;14.70;84.00;14.20;97269.00;;;;5095609;28;20641;-51
2022/10/06 07:29:14;;;;;;;0.80;0.80;;;14.80;83.00;14.50;97272.00;;;;5115217;28;20644;-51
2022/10/06 07:31:41;;;;;;;0.50;0.50;;;14.90;81.50;14.50;97278.00;;;;5117186;28;20200;-51
2022/10/06 07:34:09;;;;;;;0.83;0.83;;;;;14.60;97275.00;;;;5117143;28;20222;-50
2022/10/06 07:36:35;;;;;;;0.60;0.60;;;15.10;80.40;14.60;97276.00;;;;5117027;28;20252;-52
2022/10/06 07:39:02;;;;;;;0.80;0.80;;;15.20;81.20;14.70;97276.00;;;;5099066;28;20367;-51
2022/10/06 07:41:31;;;;;;;1.13;1.13;;;15.20;80.00;14.70;97275.00;;;;5116878;28;20686;-49
2022/10/06 07:43:58;;;;;;;0.60;0.60;;;15.20;79.50;14.70;97261.00;;;;5116895;28;20190;-53
2022/10/06 07:46:24;;;;;;;0.93;0.93;;;15.20;79.70;14.80;97264.00;;;;5116875;28;20190;-51
2022/10/06 07:48:51;;;;;;;0.50;0.50;;;15.30;80.00;14.90;97269.00;;;;5116894;28;20206;-51
2022/10/06 07:51:19;;;;;;;0.57;0.57;;;15.40;81.80;14.80;97272.00;;;;5116777;28;20201;-51
2022/10/06 07:53:49;;;;;;;0.60;0.60;;;15.30;82.00;14.70;97274.00;;;;5098621;28;20230;-51
2022/10/06 07:56:19;;;;;;;0.83;0.83;;;15.30;80.50;14.80;97284.00;;;;5116706;28;20246;-51
2022/10/06 07:58:49;;;;;;;0.70;0.70;;;15.30;80.50;14.80;97296.00;;;;5116709;28;20214;-51
2022/10/06 08:01:19;;;;;;;0.90;0.90;;;15.30;80.50;14.80;97291.00;;;;5116810;28;20186;-49
2022/10/06 08:03:49;;;;;;;0.50;0.50;;;15.40;81.10;15.00;97283.00;;;;5116503;28;20229;-49
2022/10/06 08:06:18;;;;;;;0.50;0.50;;;15.50;80.60;15.10;97293.00;;;;5116440;28;20279;-49
2022/10/06 08:08:47;;;;;;;1.00;1.00;;;15.60;79.70;15.10;97292.00;;;;5116353;28;20194;-49
2022/10/06 08:11:14;;;;;;;0.77;0.77;;;15.60;79.00;15.30;97301.00;;;;5116278;28;20248;-52
2022/10/06 08:13:44;;;;;;;0.90;0.90;;;15.70;78.10;15.20;97293.00;;;;5116253;28;20293;-51
2022/10/06 08:16:13;;;;;;;1.27;1.17;;;15.70;75.70;15.40;97294.00;;;;5116277;28;20684;-51
2022/10/06 08:18:43;;;;;;;0.53;0.53;;;15.80;76.00;15.40;97299.00;;;;5116349;28;20292;-51
2022/10/06 08:21:12;;;;;;;0.80;0.80;;;16.00;75.10;15.50;97293.00;;;;5116152;28;20729;-54
2022/10/06 08:23:44;;;;;;;0.50;0.50;;;15.90;75.20;15.60;97302.00;;;;5116176;28;20621;-49
2022/10/06 08:26:13;;;;;;;0.60;0.60;;;16.10;74.50;15.60;97305.00;;;;5116287;28;20221;-49
2022/10/06 08:28:43;;;;;;;0.60;0.60;;;16.10;74.90;15.70;97318.00;;;;5115895;28;20709;-49
2022/10/06 08:31:10;;;;;;;0.63;0.63;;;16.20;76.00;15.80;97315.00;;;;5116217;28;20204;-50
2022/10/06 08:33:37;;;;;;;0.50;0.50;;;16.30;77.50;16.00;97315.00;;;;5115987;28;20226;-50
2022/10/06 08:36:07;;;;;;;0.50;0.50;;;16.50;77.50;16.20;97321.00;;;;5115120;28;20237;-53
2022/10/06 08:38:35;;;;;;;1.27;1.17;;;16.70;76.10;16.10;97311.00;;;;5116180;28;20267;-52
2022/10/06 08:41:17;;;;;;;0.70;0.70;;;16.60;72.80;16.20;97315.00;;;;5114983;28;20254;-50
2022/10/06 08:43:52;;;;;;;0.70;0.70;;;16.70;72.30;16.40;97312.00;;;;5098311;28;20605;-50
2022/10/06 08:46:23;;;;;;;0.50;0.50;;;16.80;71.60;16.20;97329.00;;;;5115836;28;20213;-50
2022/10/06 08:48:50;;;;;;;1.13;1.13;;;16.70;70.10;16.20;97326.00;;;;5115846;28;20209;-50
2022/10/06 08:51:35;;;;;;;0.50;0.50;;;16.70;70.20;16.20;97328.00;;;;5115676;28;20531;-50
2022/10/06 08:54:13;;;;;;;1.00;0.93;;;16.70;70.80;16.30;97331.00;;;;5115710;28;20228;-52
2022/10/06 08:56:55;;;;;;;0.57;0.57;;;16.80;68.90;16.30;97328.00;;;;5115561;28;20245;-50
2022/10/06 08:59:21;;;;;;;0.70;0.70;;;16.80;69.00;16.20;97339.00;;;;5115638;28;20259;-49
2022/10/06 09:01:53;;;;;;;0.57;0.57;;;16.80;66.20;16.20;97349.00;;;;5115722;28;20579;-50
2022/10/06 09:04:27;;;;;;;0.90;0.90;;;16.70;67.60;16.30;97317.00;;;;5115811;28;20206;-50
2022/10/06 09:07:02;;;;;;;0.87;0.87;;;16.70;65.40;16.30;97322.00;;;;5115659;28;20272;-50
2022/10/06 09:09:52;;;;;;;0.43;0.43;;;16.80;67.90;16.50;97346.00;;;;5115836;28;20189;-50
2022/10/06 09:12:31;;;;;;;0.60;0.60;;;17.00;66.40;16.60;97353.00;;;;5115606;28;20202;-50
2022/10/06 09:15:17;;;;;;;0.50;0.50;;;17.00;65.30;16.60;97354.00;;;;5115497;28;20224;-50
2022/10/06 09:17:49;;;;;;;3.10;0.80;;;17.20;64.20;16.60;97350.00;;;;5097572;28;20647;-51
2022/10/06 09:20:23;;;;;;;0.50;0.50;;;17.10;65.30;16.80;97355.00;;;;5115184;28;20225;-50
2022/10/06 09:22:53;;;;;;;1.03;1.03;;;17.20;64.30;16.80;97360.00;;;;5097225;28;20205;-50
2022/10/06 09:25:25;;;;;;;0.67;0.67;;;17.30;65.90;16.80;97354.00;;;;5115214;28;20660;-50
2022/10/06 09:27:55;;;;;;;0.50;0.50;;;17.30;65.30;17.00;97350.00;;;;5115294;28;20201;-50
2022/10/06 09:30:23;;;;;;;0.67;0.67;;;17.40;64.80;17.20;97354.00;;;;5115385;28;20842;-50
2022/10/06 09:32:58;;;;;;;0.90;0.90;;;17.60;65.60;17.50;97352.00;;;;5115285;28;20190;-51
2022/10/06 09:35:27;;;;;;;0.40;0.40;;;17.80;65.00;17.50;97352.00;;;;5115122;28;20270;-51
2022/10/06 09:37:57;;;;;;;0.50;0.50;;;17.90;64.00;17.70;97363.00;;;;5115047;28;20221;-50
2022/10/06 09:40:36;;;;;;;0.53;0.53;;;18.10;63.60;17.50;97361.00;;;;5115049;28;20214;-50
2022/10/06 09:43:16;;;;;;;0.70;0.70;;;18.00;62.20;17.70;97364.00;;;;5115146;28;20300;-50
2022/10/06 09:45:42;;;;;;;0.40;0.40;;;18.10;61.90;17.60;97372.00;;;;5115035;28;20578;-50
2022/10/06 09:48:20;;;;;;;0.40;0.40;;;18.10;60.10;17.50;97373.00;;;;5114915;28;20277;-50
2022/10/06 09:51:13;;;;;;;1.67;1.47;;;18.10;62.00;17.50;97373.00;;;;5114977;28;20225;-51
2022/10/06 09:53:40;;;;;;;1.10;1.10;;;18.10;61.10;17.50;97375.00;;;;5097106;28;20580;-50
2022/10/06 09:56:17;;;;;;;0.50;0.50;;;18.00;60.60;17.30;97375.00;;;;5114790;28;20218;-50
2022/10/06 09:58:55;;;;;;;1.70;0.77;;;17.80;59.50;17.10;97371.00;;;;5114766;28;20233;-50
2022/10/06 10:01:25;;;;;;;2.40;1.00;;;17.60;59.80;17.10;97375.00;;;;5114660;28;20209;-50
2022/10/06 10:03:56;;;;;;;1.00;1.00;;;17.60;59.30;17.20;97374.00;;;;5114898;28;20197;-53
2022/10/06 10:06:26;;;;;;;1.00;0.90;;;17.70;62.20;17.50;97369.00;;;;5114609;28;20236;-51
2022/10/06 10:09:20;;;;;;;0.57;0.57;;;17.90;63.30;17.60;97373.00;;;;5096530;28;20590;-50
2022/10/06 10:14:47;;;;;;;0.50;0.50;;;18.20;60.90;17.50;97374.00;;;;5114516;28;20290;-50
2022/10/06 10:17:20;;;;;;;0.57;0.57;;;18.00;60.80;17.70;97378.00;;;;5114453;28;20225;-50
2022/10/06 10:19:52;;;;;;;0.57;0.57;;;18.20;59.90;17.70;97383.00;;;;5114516;28;20204;-50
2022/10/06 10:22:23;;;;;;;0.40;0.40;;;18.20;59.20;17.80;97373.00;;;;5114427;28;20212;-50
2022/10/06 10:25:07;;;;;;;0.60;0.60;;;18.20;57.50;17.60;97379.00;;;;5114340;28;20202;-50
2022/10/06 10:27:43;;;;;;;0.97;0.93;;;18.10;56.80;17.90;97379.00;;;;5114580;28;20205;-51
2022/10/06 10:30:13;;;;;;;0.73;0.73;;;18.30;58.80;18.00;97363.00;;;;5114314;28;20213;-50
2022/10/06 10:32:56;;;;;;;0.50;0.50;;;18.40;56.10;18.70;97354.00;;;;5114287;28;20243;-50
2022/10/06 10:35:28;;;;;;;0.60;0.60;;;18.80;54.90;18.70;97354.00;;;;5114154;28;20221;-50
2022/10/06 10:38:02;;;;;;;0.83;0.83;;;19.00;51.40;18.80;97354.00;;;;5114309;28;20285;-50
2022/10/06 10:40:41;;;;;;;0.53;0.53;;;19.00;53.30;18.80;97354.00;;;;5114191;28;20307;-52
2022/10/06 10:43:30;;;;;;;11.27;1.00;;;19.20;52.80;19.20;97364.00;;;;5096485;28;20205;-51
2022/10/06 10:46:05;;;;;;;0.50;0.50;;;19.50;49.80;19.00;97356.00;;;;5114302;28;20545;-50
2022/10/06 10:48:43;;;;;;;0.80;0.80;;;19.40;49.60;19.30;97367.00;;;;5114022;28;20277;-50
2022/10/06 10:51:19;;;;;;;0.47;0.47;;;19.70;50.80;19.00;97365.00;;;;5114052;28;20206;-51
2022/10/06 10:53:50;;;;;;;0.40;0.40;;;19.50;48.50;18.50;97367.00;;;;5113980;28;20254;-51
2022/10/06 10:56:22;;;;;;;0.60;0.60;;;19.10;50.10;19.00;97355.00;;;;5113877;28;20236;-51
2022/10/06 10:58:53;;;;;;;0.70;0.70;;;19.40;50.00;19.00;97365.00;;;;5118616;28;20221;-50
2022/10/06 11:01:34;;;;;;;0.30;0.30;;;19.40;48.60;19.30;97358.00;;;;5096007;28;20221;-51
2022/10/06 11:04:01;;;;;;;0.40;0.40;;;19.60;48.30;19.20;97362.00;;;;5113073;28;20221;-54
2022/10/06 11:06:55;;;;;;;0.30;0.30;;;19.60;45.60;19.20;97348.00;;;;5114016;28;20514;-50
2022/10/06 11:09:35;;;;;;;0.80;0.80;;;19.60;47.00;19.30;97353.00;;;;5095558;28;20225;-51
2022/10/06 11:12:18;;;;;;;0.60;0.60;;;19.70;49.10;19.60;97352.00;;;;5113955;28;20301;-51
2022/10/06 11:14:55;;;;;;;3.70;0.97;;;;;20.40;97352.00;;;;5113893;28;20546;-51
2022/10/06 11:17:43;;;;;;;0.60;0.60;;;20.40;47.40;20.60;97358.00;;;;5113909;28;20197;-51
2022/10/06 11:20:35;;;;;;;0.40;0.40;;;20.80;43.80;21.00;97344.00;;;;5113773;28;20194;-51
2022/10/06 11:23:27;;;;;;;0.57;0.57;;;21.20;43.80;20.90;97351.00;;;;5113720;28;20281;-52